METAR Data
IDs: Format: Raw Decoded Include TAF

Data at: 1613 UTC 21 Sep 2018

KHBG 211553Z AUTO 12006KT 10SM FEW036 29/24 A3009 RMK AO2 SLP188 T02940244 TSNO
KHBG 211453Z AUTO 08003KT 10SM CLR 29/24 A3010 RMK AO2 SLP191 T02940244 51008 TSNO
KHBG 211353Z AUTO 11003KT 10SM CLR 25/24 A3010 RMK AO2 SLP191 T02500239 TSNO
KHBG 211337Z AUTO 00000KT 6SM BR SCT002 24/24 A3010 RMK AO2 T02440239 TSNO
KHBG 211327Z AUTO 00000KT 5SM BR BKN002 24/23 A3010 RMK AO2 T02390233 TSNO
KHBG 211319Z AUTO 00000KT 2SM BR OVC002 24/23 A3010 RMK AO2 T02390233 TSNO
KHBG 211312Z AUTO 00000KT 1/2SM FG VV002 23/23 A3010 RMK AO2 T02330233 TSNO
KHBG 211253Z AUTO 00000KT 1/4SM FG VV002 23/23 A3010 RMK AO2 SLP189 T02330228 TSNO
KHBG 211153Z AUTO 00000KT 1/4SM FG VV002 23/22 A3008 RMK AO2 SLP182 70025 T02280222 10244 20228 51007 TSNO
KHBG 211151Z AUTO 00000KT 1/4SM FG VV002 23/22 A3008 RMK AO2 TSNO
KHBG 211129Z AUTO 00000KT 1/2SM FG VV002 23/23 A3008 RMK AO2 T02280228 TSNO
KHBG 211118Z AUTO 00000KT 1/4SM FG VV002 23/23 A3008 RMK AO2 T02280228 TSNO
KHBG 211111Z AUTO 00000KT 1/2SM FG OVC002 23/23 A3008 RMK AO2 T02280228 TSNO
KHBG 211102Z AUTO 00000KT 1 3/4SM BR OVC002 23/22 A3007 RMK AO2 T02280222 TSNO
KHBG 211053Z AUTO 00000KT 3SM BR OVC002 23/23 A3007 RMK AO2 SLP180 T02280228 TSNO
KHBG 211048Z AUTO 00000KT 2SM BR OVC002 23/23 A3007 RMK AO2 TSNO
KHBG 211042Z AUTO 00000KT 3/4SM BR OVC002 23/23 A3007 RMK AO2 T02280228 TSNO
KHBG 211031Z AUTO 00000KT 1/4SM FG VV002 23/23 A3006 RMK AO2 T02280228 TSNO
KHBG 211022Z AUTO 00000KT 1 3/4SM BR OVC002 23/22 A3006 RMK AO2 T02280222 TSNO
KHBG 211012Z AUTO 00000KT 3SM BR BKN002 23/22 A3006 RMK AO2 T02280222 TSNO
KHBG 210953Z AUTO 12003KT 9SM FEW002 23/22 A3006 RMK AO2 SLP175 T02330222 TSNO
KHBG 210853Z AUTO 00000KT 10SM CLR 24/23 A3005 RMK AO2 SLP172 T02390228 56003 TSNO
KHBG 210753Z AUTO 00000KT 10SM FEW033 FEW042 24/23 A3005 RMK AO2 SLP173 T02390228 TSNO
KHBG 210653Z AUTO 00000KT 10SM CLR 24/23 A3005 RMK AO2 SLP173 T02390228 TSNO
KHBG 210553Z AUTO 00000KT 10SM CLR 24/24 A3006 RMK AO2 SLP175 T02440239 10283 20244 403390228 51009 TSNO
KHBG 210453Z AUTO 00000KT 10SM CLR 25/24 A3006 RMK AO2 SLP175 T02500239 TSNO
KHBG 210353Z AUTO 00000KT 10SM CLR 26/24 A3005 RMK AO2 SLP171 T02610239 TSNO
KHBG 210253Z AUTO 18005KT 10SM CLR 27/24 A3003 RMK AO2 SLP166 T02670239 53012 TSNO
KHBG 210153Z AUTO 16004KT 10SM CLR 27/24 A3002 RMK AO2 SLP161 T02670244 TSNO
KHBG 210053Z AUTO 12003KT 10SM CLR 27/25 A3001 RMK AO2 SLP157 T02720250 TSNO
KHBG 202353Z AUTO 14004KT 10SM CLR 29/24 A3000 RMK AO2 SLP154 60025 T02890244 10339 20272 53004 TSNO
KHBG 202253Z AUTO 14004KT 10SM CLR 31/25 A2999 RMK AO2 SLP151 T03060250 TSNO
KHBG 202153Z AUTO 13003KT 10SM FEW060 FEW090 28/24 A2999 RMK AO2 RAB11E36 SLP153 P0025 T02830239 TSNO
KHBG 202126Z AUTO 10005KT 3SM -RA FEW020 BKN046 OVC060 27/24 A3000 RMK AO2 RAB11 P0025 T02720244 TSNO
KHBG 202115Z AUTO 13009KT 1 1/2SM +RA FEW018 BKN041 OVC050 28/24 A3001 RMK AO2 RAB11 PRESRR P0018 T02830244 TSNO
KHBG 202053Z AUTO 11005KT 10SM SCT050 SCT100 32/22 A2999 RMK AO2 SLP151 T03220222 56018 TSNO
KHBG 201953Z AUTO 18004KT 10SM CLR 32/22 A3000 RMK AO2 SLP154 T03220217 TSNO
KHBG 201853Z AUTO 16004KT 10SM FEW046 33/22 A3002 RMK AO2 SLP162 T03330222 TSNO
KHBG 201753Z AUTO 09006KT 10SM FEW039 33/22 A3004 RMK AO2 SLP169 T03280222 10328 20228 58009 TSNO
KHBG 201653Z AUTO VRB06KT 10SM FEW035 FEW050 32/23 A3006 RMK AO2 SLP175 T03220228 TSNO
KHBG 201553Z AUTO 00000KT 10SM FEW029 31/23 A3007 RMK AO2 SLP179 T03060228 TSNO
KHBG 201453Z AUTO 00000KT 10SM CLR 30/24 A3007 RMK AO2 SLP178 T03000239 51016 TSNO
KHBG 201353Z AUTO 00000KT 10SM CLR 27/24 A3005 RMK AO2 SLP173 T02720239 TSNO
KHBG 201253Z AUTO 00000KT 10SM CLR 24/23 A3004 RMK AO2 SLP168 T02440228 TSNO
KHBG 201153Z AUTO 00000KT 10SM CLR 23/22 A3002 RMK AO2 SLP162 T02280217 10244 20228 53009 TSNO
KHBG 201053Z AUTO 00000KT 10SM CLR 23/22 A3001 RMK AO2 SLP158 T02330217 TSNO
KHBG 200953Z AUTO 00000KT 10SM CLR 23/22 A2999 RMK AO2 SLP154 T02330217 TSNO
KHBG 200853Z AUTO 00000KT 10SM FEW055 SCT110 24/22 A2999 RMK AO2 SLP153 T02390222 53003 TSNO
KHBG 200753Z AUTO 00000KT 10SM BKN100 23/22 A2999 RMK AO2 SLP151 T02330222 TSNO
KHBG 200653Z AUTO 00000KT 10SM CLR 24/22 A2998 RMK AO2 SLP147 T02390222 TSNO
KHBG 200553Z AUTO 00000KT 10SM CLR 24/22 A2998 RMK AO2 SLP150 T02390222 10294 20239 403500217 58002 TSNO
KHBG 200453Z AUTO 00000KT 10SM CLR 25/23 A2999 RMK AO2 SLP152 T02500228 TSNO